createdAt,value
2019-04-14T00:04:48.687Z,75.30
2019-04-14T00:09:54.254Z,75.90
2019-04-14T00:14:59.892Z,75.90
2019-04-14T00:20:05.581Z,76.20
2019-04-14T00:25:11.436Z,76.10
2019-04-14T00:30:18.802Z,76.10
2019-04-14T00:35:43.527Z,76.30
2019-04-14T00:40:56.689Z,76.50
2019-04-14T00:46:07.966Z,76.80
2019-04-14T00:51:13.629Z,76.90
2019-04-14T00:56:19.503Z,77.00
2019-04-14T01:01:26.269Z,77.20
2019-04-14T01:06:32.176Z,77.40
2019-04-14T01:11:37.882Z,77.80
2019-04-14T01:16:43.347Z,78.20
2019-04-14T01:21:48.775Z,78.20
2019-04-14T01:26:55.039Z,78.10
2019-04-14T01:32:00.619Z,77.90
2019-04-14T01:37:07.202Z,77.70
2019-04-14T01:42:13.747Z,77.50
2019-04-14T01:47:20.488Z,77.30
2019-04-14T01:52:43.676Z,77.00
2019-04-14T01:58:23.232Z,76.90
2019-04-14T02:03:28.764Z,76.70
2019-04-14T02:08:35.206Z,76.60
2019-04-14T02:13:42.014Z,76.50
2019-04-14T02:18:50.642Z,76.90
2019-04-14T02:23:56.056Z,76.90
2019-04-14T02:29:01.577Z,77.00
2019-04-14T02:34:43.775Z,76.80
2019-04-14T02:39:46.752Z,77.30
2019-04-14T02:44:57.739Z,77.30
2019-04-14T02:50:02.480Z,77.60
2019-04-14T02:54:59.545Z,77.50
2019-04-14T03:00:11.320Z,77.30
2019-04-14T03:05:27.063Z,77.10
2019-04-14T03:10:25.860Z,77.00
2019-04-14T03:15:37.835Z,76.70
2019-04-14T03:21:13.456Z,76.50
2019-04-14T03:26:40.348Z,76.40
2019-04-14T03:32:00.016Z,76.40
2019-04-14T03:37:31.526Z,76.30
2019-04-14T03:42:01.543Z,76.30
2019-04-14T03:47:05.258Z,76.30
2019-04-14T03:52:13.014Z,76.30
2019-04-14T03:56:55.664Z,76.40
2019-04-14T04:02:01.350Z,76.70
2019-04-14T04:07:08.126Z,76.60
2019-04-14T04:12:13.983Z,76.40
2019-04-14T04:17:45.145Z,76.40
2019-04-14T04:23:18.931Z,76.20
2019-04-14T04:28:43.421Z,76.00
2019-04-14T04:34:09.915Z,75.70
2019-04-14T04:39:19.803Z,75.60
2019-04-14T04:44:26.939Z,75.50
2019-04-14T04:49:33.077Z,75.50
2019-04-14T04:54:40.679Z,75.40
2019-04-14T04:59:47.411Z,75.40
2019-04-14T05:04:53.262Z,75.50
2019-04-14T05:10:28.364Z,75.30
2019-04-14T05:15:44.617Z,75.50
2019-04-14T05:20:51.015Z,75.50
2019-04-14T05:25:58.041Z,75.80
2019-04-14T05:31:03.782Z,75.80
2019-04-14T05:36:10.636Z,76.00
2019-04-14T05:41:16.279Z,76.10
2019-04-14T05:46:22.977Z,76.20
2019-04-14T05:51:28.577Z,76.30
2019-04-14T05:56:35.884Z,76.20
2019-04-14T06:01:42.055Z,76.10
2019-04-14T06:06:47.597Z,76.00
2019-04-14T06:11:53.050Z,75.30
2019-04-14T06:16:58.491Z,74.80
2019-04-14T06:22:03.933Z,74.60
2019-04-14T06:27:09.462Z,74.00
2019-04-14T06:32:32.459Z,74.10
2019-04-14T06:37:43.299Z,73.40
2019-04-14T06:42:48.798Z,72.40
2019-04-14T06:47:54.242Z,70.20
2019-04-14T06:52:59.695Z,66.40
2019-04-14T06:58:05.135Z,63.50
2019-04-14T07:03:10.612Z,61.60
2019-04-14T07:08:16.082Z,58.70
2019-04-14T07:13:21.662Z,57.20
2019-04-14T07:18:27.120Z,56.50
2019-04-14T07:23:32.688Z,56.20
2019-04-14T07:28:38.178Z,56.20
2019-04-14T07:34:02.585Z,55.90
2019-04-14T07:39:30.004Z,55.50
2019-04-14T07:45:03.414Z,56.00
2019-04-14T07:50:46.155Z,56.20
2019-04-14T07:56:13.529Z,55.00
2019-04-14T08:01:25.994Z,53.90
2019-04-14T08:06:32.210Z,53.50
2019-04-14T08:11:38.060Z,54.00
2019-04-14T08:16:43.749Z,50.40
2019-04-14T08:21:49.357Z,48.80
2019-04-14T08:26:54.809Z,48.60
2019-04-14T08:32:00.319Z,45.70
2019-04-14T08:37:05.883Z,44.50
2019-04-14T08:42:20.859Z,45.30
2019-04-14T08:47:32.607Z,44.40
2019-04-14T08:52:59.792Z,42.40
2019-04-14T08:58:33.033Z,40.10
2019-04-14T09:03:57.586Z,37.00
2019-04-14T09:09:24.953Z,32.30
2019-04-14T09:14:30.438Z,29.50
2019-04-14T09:19:35.919Z,27.20
2019-04-14T09:24:41.504Z,26.30
2019-04-14T09:29:47.072Z,25.00
2019-04-14T09:34:52.533Z,24.30
2019-04-14T09:39:57.989Z,22.90
2019-04-14T09:45:03.526Z,22.80
2019-04-14T09:50:08.960Z,22.70
2019-04-14T09:55:14.975Z,22.80
2019-04-14T10:00:21.081Z,25.10
2019-04-14T10:05:26.676Z,27.20
2019-04-14T10:10:32.098Z,28.80
2019-04-14T10:15:40.259Z,30.20
2019-04-14T10:20:46.300Z,31.80
2019-04-14T10:25:52.419Z,32.20
2019-04-14T10:30:57.944Z,32.00
2019-04-14T10:36:03.391Z,32.70
2019-04-14T10:41:08.864Z,33.50
2019-04-14T10:46:14.311Z,33.20
2019-04-14T10:51:29.526Z,32.40
2019-04-14T10:56:27.102Z,33.30
2019-04-14T11:01:32.617Z,33.40
2019-04-14T11:06:41.628Z,33.70
2019-04-14T11:11:47.112Z,33.70
2019-04-14T11:16:52.684Z,33.60
2019-04-14T11:21:58.251Z,33.80
2019-04-14T11:27:03.738Z,33.10
2019-04-14T11:32:28.179Z,33.30
2019-04-14T11:37:58.416Z,33.20
2019-04-14T11:43:04.088Z,32.20
2019-04-14T11:48:09.563Z,32.20
2019-04-14T11:53:15.063Z,32.50
2019-04-14T11:58:20.534Z,33.20
2019-04-14T12:03:41.549Z,33.40
2019-04-14T12:09:05.880Z,33.40
2019-04-14T12:14:11.570Z,33.50
2019-04-14T12:19:17.050Z,33.50
2019-04-14T12:24:22.483Z,33.40
2019-04-14T12:29:28.233Z,33.10
2019-04-14T12:34:33.716Z,32.90
2019-04-14T12:39:39.279Z,32.70
2019-04-14T12:45:03.609Z,32.80
2019-04-14T12:50:17.519Z,32.20
2019-04-14T12:55:22.935Z,32.00
2019-04-14T13:00:53.389Z,31.20
2019-04-14T13:05:58.915Z,32.20
2019-04-14T13:11:05.097Z,32.80
2019-04-14T13:16:10.569Z,33.50
2019-04-14T13:21:16.006Z,33.80
2019-04-14T13:26:21.411Z,33.70
2019-04-14T13:31:26.852Z,34.40
2019-04-14T13:36:32.287Z,34.90
2019-04-14T13:41:38.350Z,34.50
2019-04-14T13:46:43.833Z,35.00
2019-04-14T13:51:49.250Z,35.80
2019-04-14T13:56:54.825Z,36.10
2019-04-14T14:02:00.227Z,36.00
2019-04-14T14:07:06.290Z,35.70
2019-04-14T14:12:23.144Z,35.70
2019-04-14T14:17:39.751Z,36.10
2019-04-14T14:23:01.187Z,36.60
2019-04-14T14:28:06.665Z,36.30
2019-04-14T14:33:12.074Z,36.30
2019-04-14T14:38:17.568Z,36.30
2019-04-14T14:43:23.135Z,36.40
2019-04-14T14:48:38.500Z,36.90
2019-04-14T14:53:43.988Z,37.20
2019-04-14T14:58:49.463Z,37.40
2019-04-14T15:03:55.015Z,37.30
2019-04-14T15:09:00.505Z,37.10
2019-04-14T15:14:06.976Z,37.00
2019-04-14T15:19:12.539Z,36.70
2019-04-14T15:24:18.115Z,37.00
2019-04-14T15:29:23.613Z,37.30
2019-04-14T15:34:29.148Z,37.20
2019-04-14T15:39:37.412Z,37.30
2019-04-14T15:44:41.721Z,37.20
2019-04-14T15:49:47.219Z,37.30
2019-04-14T15:54:52.783Z,37.10
2019-04-14T16:00:11.445Z,37.40
2019-04-14T16:05:26.486Z,38.60
2019-04-14T16:10:48.749Z,39.00
2019-04-14T16:15:59.944Z,39.00
2019-04-14T16:21:05.474Z,38.90
2019-04-14T16:26:29.840Z,39.60
2019-04-14T16:32:03.326Z,39.90
2019-04-14T16:37:08.861Z,40.50
2019-04-14T16:42:14.323Z,41.10
2019-04-14T16:47:19.741Z,41.60
2019-04-14T16:52:33.714Z,42.00
2019-04-14T16:57:56.875Z,42.30
2019-04-14T17:03:02.430Z,42.80
2019-04-14T17:08:07.905Z,43.10
2019-04-14T17:13:13.435Z,43.90
2019-04-14T17:18:35.126Z,43.70
2019-04-14T17:23:45.360Z,43.80
2019-04-14T17:28:58.178Z,44.10
2019-04-14T17:34:14.116Z,44.60
2019-04-14T17:39:28.473Z,44.80
2019-04-14T17:44:41.319Z,45.30
2019-04-14T17:50:11.451Z,45.60
2019-04-14T17:55:33.248Z,45.90
2019-04-14T18:01:03.473Z,46.30
2019-04-14T18:06:33.614Z,47.00
2019-04-14T18:11:43.482Z,47.20
2019-04-14T18:17:10.561Z,47.00
2019-04-14T18:22:15.983Z,47.60
2019-04-14T18:27:21.536Z,48.20
2019-04-14T18:32:46.830Z,49.40
2019-04-14T18:38:14.819Z,50.90
2019-04-14T18:43:36.715Z,51.00
2019-04-14T18:49:07.069Z,51.10
2019-04-14T18:54:34.655Z,51.80
2019-04-14T18:59:57.673Z,52.30
2019-04-14T19:05:03.149Z,52.50
2019-04-14T19:10:08.976Z,52.50
2019-04-14T19:15:36.016Z,53.00
2019-04-14T19:20:45.091Z,53.10
2019-04-14T19:25:50.591Z,53.30
2019-04-14T19:30:56.041Z,53.50
2019-04-14T19:36:01.452Z,53.80
2019-04-14T19:41:07.174Z,54.50
2019-04-14T19:46:12.629Z,54.60
2019-04-14T19:51:18.228Z,55.90
2019-04-14T19:56:23.661Z,55.40
2019-04-14T20:01:29.120Z,55.40
2019-04-14T20:06:34.569Z,55.50
2019-04-14T20:11:40.056Z,55.90
2019-04-14T20:16:56.760Z,55.90
2019-04-14T20:22:17.298Z,56.10
2019-04-14T20:27:53.771Z,56.50
2019-04-14T20:32:59.276Z,56.60
2019-04-14T20:38:04.684Z,57.60
2019-04-14T20:43:10.308Z,57.10
2019-04-14T20:48:15.795Z,57.40
2019-04-14T20:53:21.205Z,57.60
2019-04-14T20:58:26.612Z,58.10
2019-04-14T21:03:49.100Z,57.90
2019-04-14T21:09:09.363Z,58.60
2019-04-14T21:14:33.826Z,58.90
2019-04-14T21:20:06.998Z,58.80
2019-04-14T21:25:40.215Z,59.00
2019-04-14T21:31:19.453Z,58.80
2019-04-14T21:36:29.808Z,59.10
2019-04-14T21:41:35.473Z,59.20
2019-04-14T21:46:40.948Z,59.70
2019-04-14T21:52:10.600Z,60.50
2019-04-14T21:57:34.918Z,60.70
2019-04-14T22:02:57.486Z,60.60
2019-04-14T22:08:15.385Z,60.80
2019-04-14T22:13:21.005Z,62.20
2019-04-14T22:18:26.518Z,61.20
2019-04-14T22:23:31.972Z,61.40
2019-04-14T22:28:37.441Z,62.00
2019-04-14T22:33:42.879Z,62.20
2019-04-14T22:38:48.313Z,62.20
2019-04-14T22:43:53.851Z,62.30
2019-04-14T22:48:59.262Z,62.70
2019-04-14T22:54:04.673Z,63.00
2019-04-14T22:59:10.157Z,64.00
2019-04-14T23:04:40.436Z,63.60
2019-04-14T23:09:54.066Z,63.70
2019-04-14T23:15:21.788Z,63.80
2019-04-14T23:20:35.638Z,63.50
2019-04-14T23:25:41.098Z,63.30
2019-04-14T23:30:46.622Z,63.30
2019-04-14T23:35:52.257Z,63.00
2019-04-14T23:40:57.684Z,62.90
2019-04-14T23:46:03.231Z,63.00
2019-04-14T23:51:08.831Z,63.10
2019-04-14T23:56:14.285Z,63.40
